Time;durP1;ratioP1;P1;durP2;ratioP2;P2;SDS_P1;SDS_P2;PMS_P1;PMS_P2;Temp;Humidity;BMP_temperature;BMP_pressure;BME280_temperature;BME280_humidity;BME280_pressure;Samples;Min_cycle;Max_cycle;Signal;HPM_P1;HPM_P2
2022/06/27 00:00:15;;;;;;;10.20;9.02;;;25.60;99.90;;;;;;5073535;28;20222;-74
2022/06/27 00:02:42;;;;;;;9.80;8.98;;;25.50;99.90;;;;;;5073849;28;20215;-74
2022/06/27 00:05:08;;;;;;;10.55;9.20;;;25.50;99.90;;;;;;5068307;28;20231;-74
2022/06/27 00:07:34;;;;;;;10.02;9.13;;;25.50;99.90;;;;;;5073043;28;20211;-74
2022/06/27 00:10:00;;;;;;;10.73;9.73;;;25.50;99.90;;;;;;5073084;28;20191;-76
2022/06/27 00:12:25;;;;;;;10.52;9.48;;;25.50;99.90;;;;;;5073688;28;20175;-74
2022/06/27 00:14:51;;;;;;;9.55;8.65;;;25.50;99.90;;;;;;5073182;28;20239;-74
2022/06/27 00:17:17;;;;;;;9.82;8.93;;;25.40;99.90;;;;;;5073103;28;20294;-75
2022/06/27 00:19:42;;;;;;;10.25;9.30;;;25.40;99.90;;;;;;5054679;28;20249;-75
2022/06/27 00:22:08;;;;;;;10.07;9.15;;;25.30;99.90;;;;;;5073031;28;20680;-74
2022/06/27 00:24:34;;;;;;;10.57;9.55;;;25.30;99.90;;;;;;5055386;28;20551;-73
2022/06/27 00:26:59;;;;;;;10.57;9.43;;;25.30;99.90;;;;;;5073047;28;20203;-74
2022/06/27 00:29:25;;;;;;;10.00;9.10;;;25.30;99.90;;;;;;5072232;28;20206;-74
2022/06/27 00:31:51;;;;;;;10.95;9.88;;;25.30;99.90;;;;;;5054947;28;20231;-74
2022/06/27 00:34:17;;;;;;;9.98;9.18;;;25.30;99.90;;;;;;5066566;28;20207;-74
2022/06/27 00:36:43;;;;;;;11.75;9.93;;;25.30;99.90;;;;;;5055097;28;20214;-74
2022/06/27 00:39:09;;;;;;;10.90;9.90;;;25.30;99.90;;;;;;5063830;28;20203;-75
2022/06/27 00:41:35;;;;;;;11.43;10.25;;;25.30;99.90;;;;;;5072268;28;20206;-74
2022/06/27 00:44:01;;;;;;;10.68;9.73;;;25.30;99.90;;;;;;5054644;28;20214;-75
2022/06/27 00:46:28;;;;;;;12.43;11.10;;;25.30;99.90;;;;;;5072305;28;20214;-75
2022/06/27 00:48:53;;;;;;;10.95;9.95;;;25.20;99.90;;;;;;5054112;28;20701;-74
2022/06/27 00:51:19;;;;;;;12.52;11.43;;;25.20;99.90;;;;;;5054774;28;20239;-75
2022/06/27 00:53:45;;;;;;;12.85;10.77;;;25.20;99.90;;;;;;5072437;28;20702;-76
2022/06/27 00:56:11;;;;;;;15.57;11.57;;;25.20;99.90;;;;;;5072606;28;20215;-74
2022/06/27 00:58:37;;;;;;;13.35;12.00;;;25.10;99.90;;;;;;5070399;28;20210;-75
2022/06/27 01:01:03;;;;;;;11.73;10.52;;;25.10;99.90;;;;;;5070062;28;20753;-74
2022/06/27 01:03:29;;;;;;;12.07;10.98;;;25.10;99.90;;;;;;5045841;28;20657;-74
2022/06/27 01:05:56;;;;;;;11.73;10.70;;;25.10;99.90;;;;;;5071794;28;20218;-74
2022/06/27 01:08:27;;;;;;;13.68;10.57;;;25.10;99.90;;;;;;5071623;28;20708;-75
2022/06/27 01:10:53;;;;;;;12.45;11.27;;;25.00;99.90;;;;;;5072053;28;20211;-74
2022/06/27 01:13:20;;;;;;;11.75;10.73;;;25.00;99.90;;;;;;5072027;28;20215;-74
2022/06/27 01:15:47;;;;;;;11.57;10.48;;;25.10;99.90;;;;;;5072490;28;20309;-75
2022/06/27 01:18:13;;;;;;;11.20;10.20;;;25.00;99.90;;;;;;5053634;28;20203;-74
2022/06/27 01:20:43;;;;;;;11.75;10.75;;;25.00;99.90;;;;;;5071688;28;20250;-75
2022/06/27 01:23:08;;;;;;;11.68;10.52;;;24.90;99.90;;;;;;5045583;28;20217;-74
2022/06/27 01:25:36;;;;;;;10.52;9.63;;;24.90;99.90;;;;;;5071712;28;20214;-73
2022/06/27 01:28:03;;;;;;;11.48;10.40;;;24.90;99.90;;;;;;5071532;28;20202;-78
2022/06/27 01:30:29;;;;;;;11.95;10.85;;;24.90;99.90;;;;;;5072048;28;20202;-75
2022/06/27 01:32:55;;;;;;;11.40;9.73;;;24.90;99.90;;;;;;5068804;28;20203;-74
2022/06/27 01:35:20;;;;;;;11.40;10.30;;;24.90;99.90;;;;;;5068303;28;20695;-74
2022/06/27 01:37:46;;;;;;;11.00;10.07;;;24.90;99.90;;;;;;5071495;28;20275;-75
2022/06/27 01:40:14;;;;;;;11.80;10.40;;;24.80;99.90;;;;;;5071319;28;20211;-73
2022/06/27 01:42:39;;;;;;;10.98;9.98;;;24.80;99.90;;;;;;5071984;28;20183;-74
2022/06/27 01:45:05;;;;;;;11.82;10.40;;;24.90;99.90;;;;;;5071588;28;20310;-75
2022/06/27 01:47:31;;;;;;;12.18;11.07;;;24.90;99.90;;;;;;5071149;28;20215;-74
2022/06/27 01:49:57;;;;;;;11.73;10.50;;;24.80;99.90;;;;;;5070822;28;20567;-74
2022/06/27 01:52:23;;;;;;;12.55;11.35;;;24.80;99.90;;;;;;5070843;28;20289;-73
2022/06/27 01:54:48;;;;;;;13.30;9.73;;;24.80;99.90;;;;;;5053416;28;20199;-74
2022/06/27 01:57:16;;;;;;;10.63;9.73;;;24.70;99.90;;;;;;5071831;28;20225;-74
2022/06/27 01:59:42;;;;;;;11.70;10.60;;;24.70;99.90;;;;;;5070622;28;20290;-74
2022/06/27 02:02:08;;;;;;;12.48;10.80;;;24.70;99.90;;;;;;5071911;28;20320;-74
2022/06/27 02:04:36;;;;;;;12.93;11.73;;;24.60;99.90;;;;;;5065223;28;20237;-74
2022/06/27 02:07:02;;;;;;;13.00;11.68;;;24.60;99.90;;;;;;5053229;28;20171;-75
2022/06/27 02:09:28;;;;;;;11.63;10.43;;;24.60;99.90;;;;;;5070928;28;20183;-74
2022/06/27 02:11:55;;;;;;;12.13;10.88;;;24.50;99.90;;;;;;5071230;28;20210;-75
2022/06/27 02:14:20;;;;;;;12.88;11.18;;;24.50;99.90;;;;;;5053239;28;20210;-77
2022/06/27 02:16:47;;;;;;;11.93;10.82;;;24.50;99.90;;;;;;5036747;28;20562;-75
2022/06/27 02:19:17;;;;;;;11.90;10.70;;;24.40;99.90;;;;;;5070704;28;20592;-75
2022/06/27 02:21:43;;;;;;;11.82;10.70;;;24.40;99.90;;;;;;5071325;28;20713;-74
2022/06/27 02:24:10;;;;;;;12.48;11.38;;;24.40;99.90;;;;;;5071519;28;20228;-74
2022/06/27 02:26:36;;;;;;;13.00;11.18;;;24.40;99.90;;;;;;5070886;28;20580;-73
2022/06/27 02:29:03;;;;;;;12.13;11.13;;;24.40;99.90;;;;;;5070779;28;20292;-74
2022/06/27 02:31:29;;;;;;;12.00;10.90;;;24.30;99.90;;;;;;5070949;28;20318;-74
2022/06/27 02:33:55;;;;;;;12.23;11.05;;;24.30;99.90;;;;;;5046700;28;20270;-74
2022/06/27 02:36:38;;;;;;;12.55;11.35;;;24.30;99.90;;;;;;5053416;28;20209;-76
2022/06/27 02:39:05;;;;;;;12.43;11.23;;;24.30;99.90;;;;;;5071040;28;20203;-74
2022/06/27 02:41:37;;;;;;;13.27;11.75;;;24.30;99.90;;;;;;5070837;28;20214;-74
2022/06/27 02:44:07;;;;;;;13.43;12.15;;;24.30;99.90;;;;;;5048579;28;20235;-75
2022/06/27 02:46:34;;;;;;;12.48;11.27;;;24.30;99.90;;;;;;5050137;28;20334;-74
2022/06/27 02:49:00;;;;;;;13.40;12.20;;;24.30;99.90;;;;;;5047962;28;20242;-75
2022/06/27 02:51:30;;;;;;;13.65;12.13;;;24.30;99.90;;;;;;5059283;28;20205;-74
2022/06/27 02:53:58;;;;;;;13.77;11.68;;;24.20;99.90;;;;;;5032858;28;20234;-75
2022/06/27 02:56:26;;;;;;;13.63;12.43;;;24.20;99.90;;;;;;5050393;28;20227;-74
2022/06/27 02:59:02;;;;;;;12.95;11.73;;;24.20;99.90;;;;;;5049978;28;20700;-74
2022/06/27 03:01:30;;;;;;;13.73;12.38;;;24.20;99.90;;;;;;5032740;28;20711;-75
2022/06/27 03:03:58;;;;;;;13.68;12.50;;;24.20;99.90;;;;;;5037382;28;20175;-74
2022/06/27 03:06:24;;;;;;;14.15;12.63;;;24.20;99.90;;;;;;5055437;28;20195;-74
2022/06/27 03:08:50;;;;;;;13.60;12.20;;;24.20;99.90;;;;;;5054810;28;20235;-75
2022/06/27 03:11:18;;;;;;;13.82;12.55;;;24.20;99.90;;;;;;5053860;28;20229;-76
2022/06/27 03:13:45;;;;;;;13.45;12.13;;;24.20;99.90;;;;;;5037017;28;20688;-73
2022/06/27 03:16:12;;;;;;;13.13;11.93;;;24.20;99.90;;;;;;5054826;28;20232;-73
2022/06/27 03:18:38;;;;;;;13.88;12.52;;;24.20;99.90;;;;;;5056577;28;20207;-75
2022/06/27 03:21:04;;;;;;;13.27;12.05;;;24.20;99.90;;;;;;5054790;28;20211;-74
2022/06/27 03:23:29;;;;;;;13.65;12.43;;;24.30;99.90;;;;;;5054493;28;20226;-76
2022/06/27 03:25:56;;;;;;;13.73;12.40;;;24.30;99.90;;;;;;5054268;28;20668;-73
2022/06/27 03:28:22;;;;;;;14.18;12.60;;;25.20;99.90;;;;;;5054035;28;20259;-73
2022/06/27 03:30:47;;;;;;;13.57;12.13;;;26.20;99.90;;;;;;5054947;28;20199;-74
2022/06/27 03:33:14;;;;;;;13.65;12.30;;;27.00;99.90;;;;;;5036661;28;20252;-72
2022/06/27 03:35:41;;;;;;;13.40;12.10;;;28.00;99.90;;;;;;5036212;28;20265;-74
2022/06/27 03:38:07;;;;;;;13.00;11.73;;;28.30;99.90;;;;;;5036288;28;20212;-74
2022/06/27 03:40:32;;;;;;;13.00;11.88;;;28.90;99.90;;;;;;5053708;28;20241;-74
2022/06/27 03:42:58;;;;;;;13.07;11.23;;;28.40;99.90;;;;;;5036060;28;20175;-74
2022/06/27 03:45:24;;;;;;;12.73;11.65;;;28.50;99.90;;;;;;5054461;28;20180;-74
2022/06/27 03:47:52;;;;;;;12.30;11.20;;;28.80;99.90;;;;;;5053843;28;20295;-74
2022/06/27 03:50:19;;;;;;;12.02;10.30;;;29.30;99.90;;;;;;5051657;28;20220;-74
2022/06/27 03:52:45;;;;;;;11.93;10.82;;;29.90;99.90;;;;;;5053583;28;20718;-74
2022/06/27 03:55:12;;;;;;;12.70;11.57;;;30.70;99.90;;;;;;5053420;28;20227;-74
2022/06/27 03:57:38;;;;;;;12.30;11.20;;;31.10;99.90;;;;;;5054182;28;20668;-74
2022/06/27 04:00:08;;;;;;;11.52;10.48;;;30.80;99.90;;;;;;5052957;28;20746;-74
2022/06/27 04:02:34;;;;;;;10.65;9.65;;;31.50;99.90;;;;;;5053317;28;20257;-74
2022/06/27 04:05:00;;;;;;;11.82;10.63;;;31.90;99.90;;;;;;5053497;28;20751;-73
2022/06/27 04:07:25;;;;;;;11.20;10.27;;;32.30;99.90;;;;;;5052809;28;20346;-73
2022/06/27 04:09:51;;;;;;;12.15;10.85;;;32.40;99.90;;;;;;5052905;28;20226;-74
2022/06/27 04:12:17;;;;;;;11.75;10.80;;;32.70;99.90;;;;;;5053784;28;20176;-74
2022/06/27 04:14:42;;;;;;;10.70;9.70;;;32.10;99.90;;;;;;5051696;28;20620;-74
2022/06/27 04:17:08;;;;;;;10.82;9.77;;;32.20;99.90;;;;;;5053186;28;20204;-75
2022/06/27 04:19:33;;;;;;;11.35;10.23;;;32.10;99.90;;;;;;5060627;28;20213;-74
2022/06/27 04:21:59;;;;;;;11.52;10.43;;;32.30;99.90;;;;;;5053198;28;20195;-75
2022/06/27 04:24:24;;;;;;;10.27;9.45;;;32.80;99.90;;;;;;5053539;28;20194;-77
2022/06/27 04:26:50;;;;;;;10.77;9.68;;;33.30;99.90;;;;;;5035375;28;20265;-73
2022/06/27 04:29:16;;;;;;;10.45;9.50;;;33.70;99.90;;;;;;5052783;28;20776;-74
2022/06/27 04:31:41;;;;;;;11.23;10.18;;;33.60;99.90;;;;;;5053069;28;20699;-73
2022/06/27 04:34:07;;;;;;;11.60;10.60;;;34.00;99.90;;;;;;5059514;28;20721;-74
2022/06/27 04:36:33;;;;;;;11.98;10.98;;;33.80;99.90;;;;;;5055463;28;20290;-74
2022/06/27 04:38:58;;;;;;;11.40;10.40;;;33.80;99.90;;;;;;5035258;28;20244;-74
2022/06/27 04:41:28;;;;;;;12.75;11.65;;;34.20;99.90;;;;;;5035148;28;20296;-75
2022/06/27 04:43:54;;;;;;;12.13;10.80;;;34.30;99.90;;;;;;5035080;28;20249;-75
2022/06/27 04:46:20;;;;;;;12.07;10.93;;;34.70;99.90;;;;;;5061659;28;20241;-75
2022/06/27 04:48:46;;;;;;;10.80;9.90;;;34.60;99.90;;;;;;5053052;28;20686;-76
2022/06/27 04:51:14;;;;;;;11.32;10.43;;;35.60;99.90;;;;;;5041858;28;20343;-76
2022/06/27 04:53:40;;;;;;;11.85;10.75;;;35.40;99.90;;;;;;5035778;28;20559;-75
2022/06/27 04:56:08;;;;;;;11.00;10.05;;;35.40;99.90;;;;;;5052598;28;20222;-75
2022/06/27 04:58:34;;;;;;;11.63;10.63;;;36.00;99.90;;;;;;5050715;28;20256;-75
2022/06/27 05:01:00;;;;;;;11.40;10.45;;;35.50;99.90;;;;;;5037970;28;20747;-75
2022/06/27 05:03:26;;;;;;;11.43;10.43;;;34.80;99.90;;;;;;5047310;28;20177;-75
2022/06/27 05:05:53;;;;;;;11.20;10.40;;;35.40;99.90;;;;;;5058984;28;20263;-74
2022/06/27 05:08:20;;;;;;;11.13;10.27;;;36.00;99.90;;;;;;5044630;28;20229;-75
2022/06/27 05:10:46;;;;;;;10.95;9.93;;;35.80;99.90;;;;;;5062288;28;20210;-76
2022/06/27 05:13:12;;;;;;;12.45;11.45;;;36.60;99.90;;;;;;5044352;28;20265;-77
2022/06/27 05:15:38;;;;;;;11.10;10.02;;;36.70;98.70;;;;;;5059715;28;20199;-75
2022/06/27 05:18:04;;;;;;;12.02;10.88;;;36.60;98.20;;;;;;5058095;28;20199;-75
2022/06/27 05:20:30;;;;;;;11.20;10.20;;;36.30;98.70;;;;;;5056483;28;20211;-75
2022/06/27 05:22:56;;;;;;;10.70;9.82;;;35.50;99.00;;;;;;5062050;28;20222;-75
2022/06/27 05:25:22;;;;;;;10.88;9.85;;;35.50;98.90;;;;;;5054982;28;20210;-75
2022/06/27 05:27:49;;;;;;;10.32;9.43;;;34.90;99.70;;;;;;5060090;28;20174;-74
2022/06/27 05:30:15;;;;;;;10.93;9.82;;;35.70;99.30;;;;;;5047887;28;20227;-74
2022/06/27 05:32:41;;;;;;;9.82;8.95;;;36.30;98.30;;;;;;5036190;28;20207;-74
2022/06/27 05:35:08;;;;;;;11.32;10.23;;;36.30;97.50;;;;;;5053317;28;20207;-74
2022/06/27 05:37:35;;;;;;;10.77;9.88;;;36.70;96.80;;;;;;5054372;28;20235;-77
2022/06/27 05:40:03;;;;;;;10.70;9.85;;;36.40;96.90;;;;;;5035734;28;20206;-75
2022/06/27 05:42:28;;;;;;;10.55;9.52;;;36.40;96.90;;;;;;5061931;28;20184;-74
2022/06/27 05:44:55;;;;;;;10.93;9.77;;;36.30;97.00;;;;;;5053501;28;20290;-75
2022/06/27 05:47:21;;;;;;;10.05;9.13;;;37.20;95.60;;;;;;5053947;28;20211;-78
2022/06/27 05:49:47;;;;;;;10.32;9.32;;;37.40;95.10;;;;;;5039689;28;20729;-75
2022/06/27 05:52:13;;;;;;;9.45;8.65;;;37.10;94.50;;;;;;5056390;28;20227;-75
2022/06/27 05:54:38;;;;;;;12.00;11.00;;;36.80;94.70;;;;;;5062698;28;20178;-76
2022/06/27 05:57:05;;;;;;;10.13;9.23;;;37.50;94.70;;;;;;5051658;28;20207;-75
2022/06/27 05:59:32;;;;;;;11.27;10.20;;;37.10;95.00;;;;;;5051834;28;20602;-75
2022/06/27 06:02:00;;;;;;;9.70;8.73;;;36.60;94.70;;;;;;5056004;28;20230;-74
2022/06/27 06:04:25;;;;;;;9.25;8.45;;;36.50;95.00;;;;;;5054201;28;20268;-75
2022/06/27 06:06:52;;;;;;;10.90;9.80;;;36.70;95.00;;;;;;5053816;28;20190;-75
2022/06/27 06:09:18;;;;;;;9.63;8.73;;;37.20;94.50;;;;;;5037020;28;20546;-74
2022/06/27 06:11:48;;;;;;;9.98;9.25;;;36.80;94.40;;;;;;5037180;28;20203;-76
2022/06/27 06:14:17;;;;;;;9.70;9.00;;;36.40;94.10;;;;;;5055026;28;20199;-74
2022/06/27 06:16:43;;;;;;;10.30;9.50;;;36.60;94.60;;;;;;5037539;28;20214;-74
2022/06/27 06:19:10;;;;;;;9.07;8.20;;;35.90;95.00;;;;;;5036723;28;20218;-74
2022/06/27 06:21:35;;;;;;;9.73;8.93;;;35.70;95.70;;;;;;5053664;28;20214;-74
2022/06/27 06:24:01;;;;;;;10.00;9.07;;;36.60;94.40;;;;;;5067136;28;20206;-74
2022/06/27 06:26:27;;;;;;;10.40;9.50;;;37.30;93.80;;;;;;5056144;28;20266;-74
2022/06/27 06:28:54;;;;;;;10.18;9.35;;;36.80;93.60;;;;;;5051687;28;20221;-77
2022/06/27 06:31:23;;;;;;;10.20;9.25;;;35.90;93.90;;;;;;5050879;28;20310;-73
2022/06/27 06:33:53;;;;;;;9.07;8.27;;;36.90;94.00;;;;;;5044320;28;20171;-74
2022/06/27 06:36:23;;;;;;;9.35;8.43;;;37.20;93.10;;;;;;5041679;28;20558;-74
2022/06/27 06:38:51;;;;;;;8.88;8.15;;;37.90;92.80;;;;;;5045521;28;20252;-74
2022/06/27 06:41:17;;;;;;;9.07;8.40;;;38.50;92.10;;;;;;5060443;28;20293;-74
2022/06/27 06:43:45;;;;;;;9.10;8.40;;;37.60;91.30;;;;;;5032281;28;20211;-73
2022/06/27 06:46:11;;;;;;;8.18;7.47;;;37.30;92.30;;;;;;5052648;28;20344;-74
2022/06/27 06:48:38;;;;;;;8.35;7.72;;;37.40;92.40;;;;;;5033991;28;20689;-74
2022/06/27 06:51:05;;;;;;;8.65;7.85;;;37.90;91.80;;;;;;5055551;28;20219;-74
2022/06/27 06:53:32;;;;;;;8.60;7.80;;;37.60;91.50;;;;;;5030943;28;20227;-74
2022/06/27 06:55:57;;;;;;;8.38;7.57;;;37.60;91.30;;;;;;5052483;28;20257;-73
2022/06/27 06:58:25;;;;;;;8.23;7.43;;;38.20;91.10;;;;;;5051785;28;20285;-75
2022/06/27 07:00:51;;;;;;;10.93;8.20;;;39.40;90.30;;;;;;5050997;28;20217;-74
2022/06/27 07:03:18;;;;;;;9.15;8.30;;;39.70;87.10;;;;;;5059890;28;20203;-74
2022/06/27 07:05:45;;;;;;;9.48;8.65;;;38.90;87.40;;;;;;5033018;28;20207;-76
2022/06/27 07:08:11;;;;;;;8.73;8.02;;;38.30;89.50;;;;;;5051138;28;20247;-74
2022/06/27 07:10:36;;;;;;;9.68;8.85;;;37.50;90.30;;;;;;5053613;28;20255;-73
2022/06/27 07:13:03;;;;;;;9.38;8.45;;;37.60;90.60;;;;;;5051267;28;20683;-76
2022/06/27 07:15:29;;;;;;;8.45;7.75;;;37.90;90.80;;;;;;5052533;28;20294;-74
2022/06/27 07:17:55;;;;;;;8.70;7.90;;;38.30;90.70;;;;;;5040789;28;20219;-74
2022/06/27 07:20:22;;;;;;;8.55;7.78;;;38.50;90.00;;;;;;5061068;28;20229;-75
2022/06/27 07:22:49;;;;;;;8.30;7.60;;;39.00;87.90;;;;;;5044343;28;20272;-74
2022/06/27 07:25:14;;;;;;;8.45;7.80;;;38.80;88.00;;;;;;5051107;28;20203;-74
2022/06/27 07:27:41;;;;;;;8.23;7.53;;;38.70;89.30;;;;;;5053072;28;20210;-73
2022/06/27 07:30:09;;;;;;;9.40;8.60;;;39.40;86.40;;;;;;5050685;28;20778;-74
2022/06/27 07:32:36;;;;;;;9.73;8.82;;;39.70;85.60;;;;;;5050344;28;20250;-74
2022/06/27 07:35:03;;;;;;;9.38;8.57;;;39.00;85.70;;;;;;5037822;28;20223;-74
2022/06/27 07:37:29;;;;;;;8.20;7.40;;;39.40;86.20;;;;;;5049974;28;20230;-73
2022/06/27 07:39:54;;;;;;;8.55;7.40;;;39.50;84.00;;;;;;5050620;28;20279;-74
2022/06/27 07:42:20;;;;;;;7.68;6.90;;;39.00;85.30;;;;;;5034203;28;20206;-74
2022/06/27 07:44:46;;;;;;;8.25;7.55;;;38.90;83.80;;;;;;5051336;28;20207;-72
2022/06/27 07:47:12;;;;;;;7.45;6.85;;;39.10;84.20;;;;;;5050587;28;20203;-74
2022/06/27 07:49:39;;;;;;;7.10;6.50;;;39.40;84.30;;;;;;5061055;28;20207;-73
2022/06/27 07:52:04;;;;;;;7.57;6.88;;;38.90;84.70;;;;;;5036007;28;20210;-73
2022/06/27 07:54:30;;;;;;;7.82;7.13;;;38.70;83.80;;;;;;5037524;28;20206;-74
2022/06/27 07:56:56;;;;;;;8.27;6.68;;;40.10;83.20;;;;;;5035790;28;20232;-74
2022/06/27 07:59:22;;;;;;;7.95;6.68;;;40.80;80.30;;;;;;5052626;28;20576;-74
2022/06/27 08:01:48;;;;;;;6.88;6.38;;;39.40;80.80;;;;;;5053904;28;20215;-74
2022/06/27 08:04:15;;;;;;;7.78;7.05;;;38.70;82.20;;;;;;5053644;28;20225;-74
2022/06/27 08:06:42;;;;;;;6.28;5.70;;;39.40;83.70;;;;;;5053923;28;20198;-73
2022/06/27 08:09:09;;;;;;;6.65;6.05;;;39.90;80.20;;;;;;5035440;28;20207;-74
2022/06/27 08:11:40;;;;;;;6.57;6.00;;;39.50;80.30;;;;;;5035297;28;20207;-73
2022/06/27 08:14:12;;;;;;;7.32;6.63;;;39.00;80.80;;;;;;5052987;28;20203;-74
2022/06/27 08:16:40;;;;;;;6.95;6.25;;;39.10;80.90;;;;;;5034983;28;20591;-73
2022/06/27 08:19:07;;;;;;;6.45;5.95;;;39.30;81.40;;;;;;5053174;28;20180;-74
2022/06/27 08:21:34;;;;;;;6.63;6.13;;;39.50;80.10;;;;;;5035458;28;20311;-74
2022/06/27 08:24:07;;;;;;;6.22;5.25;;;39.70;79.10;;;;;;5034669;28;20219;-73
2022/06/27 08:26:34;;;;;;;5.10;4.53;;;40.20;77.70;;;;;;5060741;28;20659;-73
2022/06/27 08:29:02;;;;;;;4.90;4.25;;;38.90;76.40;;;;;;5034331;28;20583;-73
2022/06/27 08:31:30;;;;;;;6.15;5.60;;;38.30;77.20;;;;;;5060745;28;20214;-73
2022/06/27 08:33:58;;;;;;;5.10;4.70;;;39.30;76.80;;;;;;5052529;28;20175;-73
2022/06/27 08:36:26;;;;;;;6.28;4.32;;;39.90;75.40;;;;;;5053086;28;20195;-72
2022/06/27 08:38:52;;;;;;;4.97;4.57;;;39.70;74.50;;;;;;5034093;28;20203;-73
2022/06/27 08:41:20;;;;;;;4.38;3.97;;;39.20;75.40;;;;;;5034713;28;20215;-72
2022/06/27 08:43:48;;;;;;;4.47;4.18;;;39.30;75.20;;;;;;5034366;28;20291;-73
2022/06/27 08:46:16;;;;;;;5.88;4.50;;;38.70;76.70;;;;;;5034231;28;20672;-73
2022/06/27 08:48:45;;;;;;;4.43;4.00;;;39.00;77.20;;;;;;5034673;28;20665;-74
2022/06/27 08:51:12;;;;;;;4.60;4.20;;;39.30;76.70;;;;;;5052512;28;20845;-74
2022/06/27 08:53:38;;;;;;;3.90;3.60;;;38.60;76.90;;;;;;5052317;28;20244;-71
2022/06/27 08:56:10;;;;;;;4.05;3.72;;;38.50;75.30;;;;;;5052853;28;20222;-70
2022/06/27 08:58:36;;;;;;;4.88;3.53;;;37.90;76.70;;;;;;5051853;28;20569;-73
2022/06/27 09:01:03;;;;;;;3.90;3.60;;;38.00;78.90;;;;;;5050939;28;20210;-74
2022/06/27 09:03:29;;;;;;;6.75;4.40;;;37.80;81.10;;;;;;5031519;28;20201;-73
2022/06/27 09:06:01;;;;;;;4.10;3.80;;;38.10;78.40;;;;;;5034315;28;20297;-73
2022/06/27 09:08:31;;;;;;;4.68;3.53;;;38.20;78.30;;;;;;5033453;28;20372;-73
2022/06/27 09:10:58;;;;;;;5.38;4.03;;;38.20;77.80;;;;;;5033417;28;20227;-73
2022/06/27 09:13:25;;;;;;;4.78;3.38;;;38.00;77.50;;;;;;5051237;28;20211;-73
2022/06/27 09:15:53;;;;;;;4.72;4.20;;;37.00;78.00;;;;;;5033678;28;20209;-73
2022/06/27 09:18:22;;;;;;;3.97;3.55;;;37.30;79.30;;;;;;5052169;28;20176;-73
2022/06/27 09:21:00;;;;;;;4.80;4.32;;;38.30;78.50;;;;;;5033546;28;20214;-72
2022/06/27 09:23:37;;;;;;;3.55;3.30;;;38.00;78.30;;;;;;5033604;28;20211;-72
2022/06/27 09:26:18;;;;;;;4.53;4.15;;;37.90;78.40;;;;;;5033372;28;20765;-72
2022/06/27 09:28:54;;;;;;;5.93;3.63;;;37.00;79.70;;;;;;5051300;28;20227;-72
2022/06/27 09:31:25;;;;;;;3.92;3.53;;;36.60;81.40;;;;;;5052010;28;20216;-72
2022/06/27 09:34:18;;;;;;;11.05;4.63;;;36.60;80.30;;;;;;5050865;28;20258;-72
2022/06/27 09:36:51;;;;;;;4.57;4.10;;;37.00;80.90;;;;;;5048184;28;20238;-72
2022/06/27 09:39:28;;;;;;;5.10;3.70;;;37.10;82.40;;;;;;5051015;28;20298;-72
2022/06/27 09:42:13;;;;;;;4.20;3.90;;;36.90;81.60;;;;;;5051237;28;20219;-72
2022/06/27 09:44:44;;;;;;;3.92;3.63;;;36.60;82.20;;;;;;5051011;28;20208;-72
2022/06/27 09:47:21;;;;;;;4.15;3.70;;;37.00;82.90;;;;;;5051575;28;20215;-72
2022/06/27 09:49:52;;;;;;;4.05;3.65;;;37.00;80.50;;;;;;5050844;28;20211;-73
2022/06/27 09:52:25;;;;;;;4.97;3.65;;;35.90;81.70;;;;;;5050757;28;20208;-71
2022/06/27 09:54:52;;;;;;;5.85;3.85;;;35.90;83.20;;;;;;5050903;28;20710;-72
2022/06/27 09:57:19;;;;;;;5.03;4.53;;;35.70;83.00;;;;;;5051812;28;20234;-72
2022/06/27 09:59:50;;;;;;;4.47;4.03;;;35.90;82.90;;;;;;5031997;28;20704;-72
2022/06/27 10:02:18;;;;;;;3.72;2.53;;;35.60;82.80;;;;;;5050658;28;20215;-72
2022/06/27 10:04:44;;;;;;;4.82;2.95;;;34.90;80.40;;;;;;5050570;28;20269;-71
2022/06/27 10:07:11;;;;;;;4.22;2.88;;;35.10;82.00;;;;;;5050585;28;20227;-72
2022/06/27 10:09:38;;;;;;;4.90;3.17;;;35.20;80.30;;;;;;5050760;28;20231;-72
2022/06/27 10:12:27;;;;;;;3.17;2.75;;;35.20;80.40;;;;;;5050209;28;20234;-72
2022/06/27 10:15:10;;;;;;;4.88;3.25;;;35.30;79.60;;;;;;5050461;28;20208;-72
2022/06/27 10:17:39;;;;;;;3.15;2.95;;;35.00;80.30;;;;;;5050706;28;20325;-72
2022/06/27 10:20:15;;;;;;;3.28;2.92;;;34.90;80.80;;;;;;5032497;28;20852;-72
2022/06/27 10:22:46;;;;;;;3.20;2.90;;;35.00;81.00;;;;;;5032610;28;20223;-72
2022/06/27 10:25:32;;;;;;;3.42;3.10;;;35.30;79.40;;;;;;5050358;28;20227;-72
2022/06/27 10:30:42;;;;;;;4.40;3.03;;;34.80;78.90;;;;;;5049302;28;20202;-71
2022/06/27 10:33:22;;;;;;;5.07;3.08;;;34.80;79.90;;;;;;5050383;28;20204;-72
2022/06/27 10:36:04;;;;;;;3.55;2.92;;;34.80;81.00;;;;;;5050303;28;20247;-72
2022/06/27 10:38:42;;;;;;;3.65;3.10;;;34.40;81.60;;;;;;5050128;28;20204;-72
2022/06/27 10:41:33;;;;;;;5.63;3.55;;;34.50;81.30;;;;;;5050508;28;20210;-72
2022/06/27 10:43:59;;;;;;;3.95;3.53;;;34.60;80.20;;;;;;5020553;28;20676;-72
2022/06/27 10:46:24;;;;;;;5.28;3.05;;;34.80;81.50;;;;;;5050311;28;20218;-72
2022/06/27 10:48:58;;;;;;;3.22;2.92;;;35.00;82.20;;;;;;5050025;28;20292;-72
2022/06/27 10:51:30;;;;;;;3.47;2.83;;;34.80;80.40;;;;;;5050659;28;20249;-72
2022/06/27 10:54:09;;;;;;;3.58;3.25;;;34.70;81.50;;;;;;5032511;28;20200;-72
2022/06/27 10:56:42;;;;;;;3.85;3.20;;;34.80;81.50;;;;;;5049920;28;20684;-72
2022/06/27 10:59:14;;;;;;;5.82;3.60;;;35.10;82.40;;;;;;5049935;28;20226;-72
2022/06/27 11:01:52;;;;;;;5.15;4.10;;;35.30;82.80;;;;;;5032099;28;20218;-72
2022/06/27 11:04:32;;;;;;;4.03;3.50;;;35.00;81.90;;;;;;5050282;28;20265;-72
2022/06/27 11:06:59;;;;;;;3.95;3.58;;;35.20;82.20;;;;;;5050075;28;20198;-72
2022/06/27 11:09:44;;;;;;;7.03;3.80;;;35.00;82.40;;;;;;5050158;28;20222;-72
2022/06/27 11:12:13;;;;;;;4.53;3.70;;;35.20;82.50;;;;;;5049973;28;20770;-72
2022/06/27 11:14:51;;;;;;;5.40;3.80;;;35.00;82.60;;;;;;5032176;28;20294;-72
2022/06/27 11:17:46;;;;;;;3.47;3.17;;;34.60;81.90;;;;;;5049967;28;20209;-72
2022/06/27 11:20:29;;;;;;;5.40;3.13;;;34.70;82.10;;;;;;5032561;28;20204;-72
2022/06/27 11:22:57;;;;;;;6.18;4.00;;;34.60;82.20;;;;;;5032510;28;20262;-72
2022/06/27 11:25:24;;;;;;;3.47;3.10;;;34.30;82.70;;;;;;5053709;28;20208;-71
2022/06/27 11:27:53;;;;;;;4.57;3.13;;;34.40;83.10;;;;;;5053522;28;20168;-73
2022/06/27 11:33:10;;;;;;;7.07;3.80;;;34.80;83.10;;;;;;5053922;28;20257;-73
2022/06/27 11:35:35;;;;;;;4.85;3.28;;;34.50;82.40;;;;;;5053388;28;20215;-71
2022/06/27 11:38:05;;;;;;;3.78;3.35;;;34.60;82.20;;;;;;5035476;28;20223;-71
2022/06/27 11:40:30;;;;;;;5.57;4.00;;;34.30;82.30;;;;;;5035301;28;20273;-72
2022/06/27 11:42:56;;;;;;;5.00;3.83;;;34.50;83.00;;;;;;5035639;28;20176;-72
2022/06/27 11:45:22;;;;;;;3.67;3.35;;;34.60;82.10;;;;;;5054136;28;20187;-71
2022/06/27 11:47:47;;;;;;;4.10;3.60;;;34.70;82.30;;;;;;5053464;28;20298;-72
2022/06/27 11:50:19;;;;;;;4.55;3.88;;;34.50;81.70;;;;;;5053789;28;20212;-72
2022/06/27 11:52:49;;;;;;;3.13;2.83;;;34.80;82.30;;;;;;5053152;28;20589;-72
2022/06/27 11:55:17;;;;;;;3.22;2.95;;;34.80;81.40;;;;;;5053241;28;20222;-72
2022/06/27 11:57:54;;;;;;;4.10;3.70;;;34.80;81.20;;;;;;5053382;28;20175;-72
2022/06/27 12:00:40;;;;;;;4.20;3.80;;;34.70;81.50;;;;;;5053300;28;20231;-72
2022/06/27 12:03:11;;;;;;;5.70;3.50;;;34.70;82.50;;;;;;5054000;28;20260;-73
2022/06/27 12:05:38;;;;;;;4.53;3.80;;;35.00;83.20;;;;;;5052552;28;20200;-73
2022/06/27 12:08:09;;;;;;;4.47;3.50;;;35.10;81.60;;;;;;5052438;28;20334;-72
2022/06/27 12:10:41;;;;;;;5.50;4.32;;;34.90;82.00;;;;;;5042685;28;20703;-76
2022/06/27 12:13:10;;;;;;;3.50;3.20;;;35.10;81.90;;;;;;5052395;28;20190;-74
2022/06/27 12:15:37;;;;;;;4.57;4.00;;;35.30;81.70;;;;;;5034996;28;20314;-74
2022/06/27 12:18:04;;;;;;;4.80;3.60;;;35.60;81.50;;;;;;5052287;28;20207;-74
2022/06/27 12:20:33;;;;;;;4.13;3.58;;;35.50;81.00;;;;;;5052372;28;20211;-75
2022/06/27 12:22:58;;;;;;;3.55;3.20;;;35.00;80.00;;;;;;5034542;28;20218;-75
2022/06/27 12:25:24;;;;;;;4.45;3.88;;;34.90;80.80;;;;;;5053038;28;20588;-75
2022/06/27 12:27:50;;;;;;;3.50;3.20;;;35.00;81.50;;;;;;5052937;28;20230;-74
2022/06/27 12:30:17;;;;;;;3.67;3.15;;;35.00;81.60;;;;;;5053093;28;20705;-75
2022/06/27 12:32:43;;;;;;;3.30;3.03;;;35.10;81.20;;;;;;5053821;28;20218;-75
2022/06/27 12:35:10;;;;;;;4.57;3.40;;;35.10;81.10;;;;;;5020457;28;20259;-74
2022/06/27 12:37:37;;;;;;;4.35;3.95;;;34.90;80.40;;;;;;5034141;28;20226;-74
2022/06/27 12:40:04;;;;;;;3.42;2.63;;;35.10;80.40;;;;;;5033874;28;20621;-77
2022/06/27 12:42:30;;;;;;;5.07;3.25;;;35.00;80.30;;;;;;5052329;28;20412;-70
2022/06/27 12:44:56;;;;;;;4.38;3.80;;;34.80;80.00;;;;;;5052084;28;20203;-74
2022/06/27 12:47:21;;;;;;;5.60;3.35;;;34.50;80.40;;;;;;5051950;28;20236;-74